Time;durP1;ratioP1;P1;durP2;ratioP2;P2;SDS_P1;SDS_P2;PMS_P1;PMS_P2;Temp;Humidity;BMP_temperature;BMP_pressure;BME280_temperature;BME280_humidity;BME280_pressure;Samples;Min_cycle;Max_cycle;Signal;HPM_P1;HPM_P2
2022/01/31 00:01:34;;;;;;;13.37;3.80;;;-4.30;99.90;;;;;;5055402;28;20538;-75
2022/01/31 00:04:00;;;;;;;10.70;3.47;;;-4.00;99.90;;;;;;5055526;28;20182;-75
2022/01/31 00:06:26;;;;;;;18.23;4.30;;;-4.20;99.90;;;;;;5055183;28;20200;-72
2022/01/31 00:08:52;;;;;;;9.93;4.80;;;-4.40;99.90;;;;;;5055631;28;20627;-74
2022/01/31 00:11:18;;;;;;;14.40;4.30;;;-4.40;99.90;;;;;;5055326;28;20169;-73
2022/01/31 00:13:54;;;;;;;13.07;3.50;;;-4.10;99.90;;;;;;5055872;28;20892;-73
2022/01/31 00:16:24;;;;;;;8.73;3.13;;;-3.80;99.90;;;;;;5055345;28;20165;-74
2022/01/31 00:18:50;;;;;;;11.33;3.03;;;-4.20;99.90;;;;;;5053892;28;20410;-73
2022/01/31 00:21:16;;;;;;;14.07;4.40;;;-4.20;99.90;;;;;;5054997;28;20431;-76
2022/01/31 00:23:42;;;;;;;19.13;4.57;;;-4.20;99.90;;;;;;5055418;28;20173;-72
2022/01/31 00:26:07;;;;;;;21.70;4.40;;;-4.20;99.90;;;;;;5055381;28;20175;-73
2022/01/31 00:28:33;;;;;;;10.40;3.33;;;-4.40;99.90;;;;;;5055350;28;20200;-73
2022/01/31 00:30:59;;;;;;;9.50;3.37;;;-4.30;99.90;;;;;;5055278;28;20222;-72
2022/01/31 00:33:24;;;;;;;10.57;3.03;;;-4.40;99.90;;;;;;5055331;28;20170;-73
2022/01/31 00:35:50;;;;;;;15.83;3.63;;;-3.80;99.90;;;;;;5053965;28;20185;-74
2022/01/31 00:38:16;;;;;;;7.80;2.90;;;-4.60;99.90;;;;;;5055333;28;20184;-74
2022/01/31 00:40:42;;;;;;;8.73;3.70;;;-4.90;99.90;;;;;;5054075;28;20183;-74
2022/01/31 00:43:14;;;;;;;12.07;3.87;;;-5.10;99.90;;;;;;5055148;28;20189;-72
2022/01/31 00:46:22;;;;;;;16.67;3.70;;;-4.80;99.90;;;;;;5055172;28;20622;-72
2022/01/31 00:48:40;;;;;;;9.03;4.10;;;-5.20;99.90;;;;;;5052754;28;20556;-72
2022/01/31 00:51:05;;;;;;;12.87;4.73;;;-3.60;99.90;;;;;;5054867;28;20856;-73
2022/01/31 00:53:31;;;;;;;10.73;3.80;;;-4.80;99.90;;;;;;5054224;28;20421;-74
2022/01/31 00:55:57;;;;;;;19.20;5.03;;;-4.70;99.90;;;;;;5055034;28;20192;-73
2022/01/31 00:58:23;;;;;;;12.93;4.27;;;-4.50;99.90;;;;;;5055158;28;20173;-72
2022/01/31 01:00:48;;;;;;;20.60;5.33;;;-4.60;99.90;;;;;;5056780;28;20242;-74
2022/01/31 01:03:14;;;;;;;10.77;5.03;;;-4.40;99.90;;;;;;5058682;28;20547;-72
2022/01/31 01:05:40;;;;;;;12.90;3.97;;;-4.40;99.90;;;;;;5058469;28;20175;-74
2022/01/31 01:08:05;;;;;;;15.27;3.83;;;-3.70;99.90;;;;;;5057517;28;20257;-78
2022/01/31 01:10:31;;;;;;;18.50;4.70;;;-4.30;99.90;;;;;;5058731;28;20180;-72
2022/01/31 01:12:57;;;;;;;16.47;4.83;;;-3.90;99.90;;;;;;5058435;28;20173;-71
2022/01/31 01:15:23;;;;;;;14.47;5.30;;;-2.80;99.90;;;;;;5058668;28;20408;-75
2022/01/31 01:17:49;;;;;;;9.60;3.47;;;-4.60;99.90;;;;;;5058421;28;20176;-75
2022/01/31 01:20:15;;;;;;;12.80;3.33;;;-5.00;99.90;;;;;;5058300;28;20182;-77
2022/01/31 01:22:42;;;;;;;15.97;5.73;;;-4.80;99.90;;;;;;5058251;28;20610;-74
2022/01/31 01:25:09;;;;;;;12.07;3.47;;;-4.50;99.90;;;;;;5058328;28;20412;-74
2022/01/31 01:27:35;;;;;;;10.50;3.73;;;-4.10;99.90;;;;;;5058183;28;20453;-76
2022/01/31 01:30:00;;;;;;;11.47;3.20;;;-4.00;99.90;;;;;;5058265;28;20757;-75
2022/01/31 01:32:30;;;;;;;11.73;4.33;;;-4.30;99.90;;;;;;5057012;28;20169;-73
2022/01/31 01:35:00;;;;;;;11.63;3.90;;;-4.60;99.90;;;;;;5058018;28;20280;-77
2022/01/31 01:37:26;;;;;;;14.50;3.47;;;-5.30;99.90;;;;;;5058040;28;20690;-76
2022/01/31 01:39:52;;;;;;;16.17;5.87;;;-6.10;99.90;;;;;;5058323;28;20411;-74
2022/01/31 01:42:17;;;;;;;13.00;4.07;;;-3.40;99.90;;;;;;5057821;28;20218;-74
2022/01/31 01:44:46;;;;;;;17.53;4.40;;;-6.30;99.90;;;;;;5057915;28;20180;-74
2022/01/31 01:47:19;;;;;;;15.00;5.07;;;-5.80;99.90;;;;;;5056778;28;20295;-75
2022/01/31 01:49:45;;;;;;;10.37;3.40;;;-5.90;99.90;;;;;;5057950;28;20403;-73
2022/01/31 01:52:12;;;;;;;7.37;3.23;;;-5.60;99.90;;;;;;5057842;28;20396;-76
2022/01/31 01:54:38;;;;;;;11.33;3.77;;;-5.90;99.90;;;;;;5057800;28;20401;-74
2022/01/31 01:57:04;;;;;;;17.63;3.83;;;-6.30;99.90;;;;;;5057742;28;20652;-75
2022/01/31 01:59:35;;;;;;;14.53;4.87;;;-5.70;99.90;;;;;;5057654;28;20169;-75
2022/01/31 02:02:05;;;;;;;11.07;4.30;;;-6.30;99.90;;;;;;5057368;28;20425;-75
2022/01/31 02:04:32;;;;;;;18.97;4.10;;;-6.30;99.90;;;;;;5057841;28;20714;-75
2022/01/31 02:06:58;;;;;;;10.67;3.97;;;-6.30;99.90;;;;;;5057499;28;20460;-75
2022/01/31 02:09:27;;;;;;;9.70;3.87;;;-6.00;99.90;;;;;;5057594;28;20399;-75
2022/01/31 02:11:57;;;;;;;14.80;3.47;;;-6.30;99.90;;;;;;5057361;28;20168;-75
2022/01/31 02:14:26;;;;;;;11.53;4.73;;;-6.00;99.90;;;;;;5057338;28;20485;-74
2022/01/31 02:16:53;;;;;;;10.83;5.97;;;-6.00;99.90;;;;;;5057124;28;20878;-75
2022/01/31 02:19:21;;;;;;;14.07;4.13;;;-5.80;99.90;;;;;;5057371;28;20408;-75
2022/01/31 02:21:50;;;;;;;16.17;4.70;;;-6.20;99.90;;;;;;5057151;28;20507;-75
2022/01/31 02:24:16;;;;;;;16.27;5.20;;;-5.80;99.90;;;;;;5057199;28;20805;-75
2022/01/31 02:26:41;;;;;;;13.63;4.27;;;-6.70;99.90;;;;;;5057188;28;20409;-75
2022/01/31 02:29:11;;;;;;;8.70;3.57;;;-4.00;99.90;;;;;;5057105;28;20630;-76
2022/01/31 02:31:41;;;;;;;10.77;4.93;;;-6.00;99.90;;;;;;5056773;28;20608;-75
2022/01/31 02:34:07;;;;;;;12.70;3.97;;;-6.50;99.90;;;;;;5056996;28;20397;-77
2022/01/31 02:36:33;;;;;;;6.00;4.37;;;-6.50;99.90;;;;;;5057084;28;20887;-74
2022/01/31 02:38:59;;;;;;;12.70;3.67;;;-6.20;99.90;;;;;;5057011;28;20168;-76
2022/01/31 02:41:27;;;;;;;12.33;4.37;;;-6.00;99.90;;;;;;5056749;28;20183;-74
2022/01/31 02:43:54;;;;;;;11.57;4.30;;;-5.70;99.90;;;;;;5057220;28;20219;-74
2022/01/31 02:46:26;;;;;;;11.70;4.60;;;-5.50;99.90;;;;;;5056724;28;20409;-74
2022/01/31 02:48:54;;;;;;;8.07;4.00;;;-5.00;99.90;;;;;;5055878;28;20725;-74
2022/01/31 02:51:22;;;;;;;11.37;4.03;;;-5.30;99.90;;;;;;5072392;28;20417;-73
2022/01/31 02:53:48;;;;;;;6.40;2.93;;;-5.60;99.90;;;;;;5055402;28;20414;-73
2022/01/31 02:56:14;;;;;;;4.07;3.10;;;-5.90;99.90;;;;;;5056753;28;20833;-76
2022/01/31 02:58:40;;;;;;;2.63;2.50;;;-6.10;99.90;;;;;;5056647;28;20516;-77
2022/01/31 03:01:06;;;;;;;7.00;3.00;;;-5.40;99.90;;;;;;5056180;28;20183;-77
2022/01/31 03:03:32;;;;;;;5.77;2.77;;;-5.70;99.90;;;;;;5056361;28;20176;-76
2022/01/31 03:05:58;;;;;;;3.50;2.43;;;-5.60;99.90;;;;;;5056627;28;20459;-75
2022/01/31 03:08:25;;;;;;;4.70;3.10;;;-5.40;99.90;;;;;;5056227;28;20229;-76
2022/01/31 03:10:52;;;;;;;7.13;4.03;;;-5.30;99.90;;;;;;5056219;28;20406;-75
2022/01/31 03:13:18;;;;;;;6.03;2.87;;;-5.10;99.90;;;;;;5056690;28;20833;-76
2022/01/31 03:15:44;;;;;;;7.87;3.50;;;-5.50;99.90;;;;;;5056047;28;20412;-74
2022/01/31 03:18:09;;;;;;;10.40;3.33;;;-6.00;99.90;;;;;;5056270;28;20409;-75
2022/01/31 03:20:35;;;;;;;5.00;3.03;;;-6.20;99.90;;;;;;5056054;28;20176;-75
2022/01/31 03:23:01;;;;;;;6.33;3.07;;;-6.10;99.90;;;;;;5055675;28;20205;-75
2022/01/31 03:25:27;;;;;;;4.07;2.73;;;-6.10;99.90;;;;;;5056195;28;20234;-74
2022/01/31 03:27:55;;;;;;;7.07;3.97;;;-5.70;99.90;;;;;;5055004;28;20506;-75
2022/01/31 03:30:23;;;;;;;7.67;3.33;;;-5.70;99.90;;;;;;5055711;28;20463;-74
2022/01/31 03:32:49;;;;;;;5.60;3.80;;;-5.30;99.90;;;;;;5055997;28;20412;-74
2022/01/31 03:35:16;;;;;;;11.10;3.90;;;-5.30;99.90;;;;;;5055988;28;20409;-75
2022/01/31 03:37:42;;;;;;;6.43;3.63;;;-5.20;99.90;;;;;;5055965;28;20397;-75
2022/01/31 03:40:09;;;;;;;7.87;3.17;;;-5.20;99.90;;;;;;5054718;28;20416;-74
2022/01/31 03:42:36;;;;;;;8.07;3.70;;;-5.70;99.90;;;;;;5055696;28;20572;-75
2022/01/31 03:45:02;;;;;;;5.17;3.17;;;-5.80;99.90;;;;;;5055499;28;20411;-74
2022/01/31 03:47:27;;;;;;;8.10;3.70;;;-5.80;99.90;;;;;;5055795;28;20798;-78
2022/01/31 03:49:53;;;;;;;19.00;5.57;;;-6.00;99.90;;;;;;5055592;28;20175;-78
2022/01/31 03:52:19;;;;;;;6.97;2.97;;;-6.40;99.90;;;;;;5055834;28;20171;-77
2022/01/31 03:54:46;;;;;;;10.90;3.43;;;-7.10;99.90;;;;;;5055657;28;20179;-75
2022/01/31 03:57:12;;;;;;;8.97;3.20;;;-6.40;99.90;;;;;;5055682;28;20164;-75
2022/01/31 03:59:38;;;;;;;11.03;3.37;;;-6.20;99.90;;;;;;5055452;28;20411;-77
2022/01/31 04:02:06;;;;;;;9.87;3.90;;;-6.80;99.90;;;;;;5055501;28;20422;-73
2022/01/31 04:04:32;;;;;;;10.03;2.53;;;-6.50;99.90;;;;;;5055618;28;20808;-75
2022/01/31 04:06:58;;;;;;;8.47;4.00;;;-6.10;99.90;;;;;;5055402;28;20490;-76
2022/01/31 04:09:23;;;;;;;10.27;2.80;;;-6.20;99.90;;;;;;5055454;28;20261;-76
2022/01/31 04:11:49;;;;;;;11.90;2.87;;;-5.90;99.90;;;;;;5055202;28;20569;-72
2022/01/31 04:14:15;;;;;;;9.07;4.50;;;-6.20;99.90;;;;;;5055350;28;20176;-74
2022/01/31 04:16:40;;;;;;;7.20;2.67;;;-6.40;99.90;;;;;;5055442;28;20455;-72
2022/01/31 04:19:06;;;;;;;4.77;2.13;;;-6.10;99.90;;;;;;5054403;28;20175;-72
2022/01/31 04:21:32;;;;;;;11.63;2.00;;;-6.40;99.90;;;;;;5055176;28;20194;-73
2022/01/31 04:23:58;;;;;;;9.60;2.10;;;-6.30;99.90;;;;;;5055435;28;20161;-73
2022/01/31 04:26:31;;;;;;;9.40;2.47;;;-6.20;99.90;;;;;;5055322;28;20186;-73
2022/01/31 04:29:05;;;;;;;9.37;2.20;;;-6.00;99.90;;;;;;5055169;28;20399;-73
2022/01/31 04:34:02;;;;;;;8.30;2.67;;;-5.90;99.90;;;;;;5054711;28;20398;-73
2022/01/31 04:36:28;;;;;;;9.33;2.43;;;-5.60;99.90;;;;;;5058219;28;20443;-72
2022/01/31 04:38:54;;;;;;;10.37;2.67;;;-5.90;99.90;;;;;;5058162;28;20182;-72
2022/01/31 04:41:20;;;;;;;10.80;2.53;;;-5.90;99.90;;;;;;5058957;28;20180;-73
2022/01/31 04:43:48;;;;;;;15.70;3.13;;;-5.50;99.90;;;;;;5059181;28;20186;-76
2022/01/31 04:46:14;;;;;;;12.17;1.80;;;-4.50;99.90;;;;;;5059060;28;20853;-73
2022/01/31 04:48:43;;;;;;;12.93;4.87;;;-5.70;99.90;;;;;;5058995;28;20457;-74
2022/01/31 04:51:09;;;;;;;10.77;2.27;;;-5.60;99.90;;;;;;5058854;28;20165;-73
2022/01/31 04:53:36;;;;;;;17.27;2.60;;;-5.60;99.90;;;;;;5058003;28;20409;-73
2022/01/31 04:56:03;;;;;;;12.90;3.00;;;-5.50;99.90;;;;;;5058655;28;20397;-74
2022/01/31 04:58:30;;;;;;;7.63;2.00;;;-5.50;99.90;;;;;;5058960;28;20407;-73
2022/01/31 05:00:56;;;;;;;7.10;1.93;;;-5.50;99.90;;;;;;5057341;28;20462;-73
2022/01/31 05:03:22;;;;;;;7.50;2.03;;;-5.10;99.90;;;;;;5058879;28;20413;-73
2022/01/31 05:05:48;;;;;;;12.97;2.17;;;-5.20;99.90;;;;;;5058783;28;20176;-74
2022/01/31 05:08:14;;;;;;;5.30;3.20;;;-4.90;99.90;;;;;;5058647;28;20680;-74
2022/01/31 05:10:46;;;;;;;20.90;2.80;;;-5.20;99.90;;;;;;5058480;28;20394;-74
2022/01/31 05:13:13;;;;;;;8.70;2.50;;;-5.10;99.90;;;;;;5058756;28;20176;-75
2022/01/31 05:15:39;;;;;;;7.90;1.80;;;-5.30;99.90;;;;;;5057683;28;20405;-75
2022/01/31 05:18:05;;;;;;;9.73;2.63;;;-4.90;99.90;;;;;;5058414;28;21133;-77
2022/01/31 05:20:31;;;;;;;6.60;2.97;;;-5.00;99.90;;;;;;5058482;28;20407;-75
2022/01/31 05:22:57;;;;;;;8.10;1.90;;;-5.20;99.90;;;;;;5058302;28;20664;-77
2022/01/31 05:25:22;;;;;;;10.03;2.33;;;-3.90;99.90;;;;;;5058244;28;20256;-77
2022/01/31 05:27:48;;;;;;;8.93;2.20;;;-4.80;99.90;;;;;;5058255;28;20239;-76
2022/01/31 05:30:16;;;;;;;7.90;2.53;;;-4.90;99.90;;;;;;5058304;28;20162;-75
2022/01/31 05:32:42;;;;;;;8.90;2.67;;;-4.80;99.90;;;;;;5058197;28;20192;-75
2022/01/31 05:35:08;;;;;;;9.07;2.13;;;-4.90;99.90;;;;;;5057385;28;20702;-75
2022/01/31 05:37:35;;;;;;;8.80;2.07;;;-3.20;99.90;;;;;;5058197;28;20394;-75
2022/01/31 05:40:02;;;;;;;3.70;1.43;;;-3.50;99.90;;;;;;5057826;28;20470;-75
2022/01/31 05:42:27;;;;;;;10.77;2.57;;;-4.80;99.90;;;;;;5057851;28;20848;-75
2022/01/31 05:44:53;;;;;;;4.07;1.60;;;-3.50;99.90;;;;;;5057978;28;20499;-75
2022/01/31 05:47:19;;;;;;;6.40;2.20;;;-4.90;99.90;;;;;;5057460;28;20686;-75
2022/01/31 05:49:45;;;;;;;11.27;2.70;;;-4.90;99.90;;;;;;5057997;28;20168;-76
2022/01/31 05:52:11;;;;;;;16.20;2.47;;;-5.20;99.90;;;;;;5056753;28;20497;-78
2022/01/31 05:54:39;;;;;;;11.23;2.27;;;-4.80;99.90;;;;;;5057648;28;20166;-76
2022/01/31 05:57:06;;;;;;;17.40;3.97;;;-3.60;99.90;;;;;;5057567;28;20399;-76
2022/01/31 05:59:33;;;;;;;12.27;2.93;;;-5.00;99.90;;;;;;5057781;28;20400;-76
2022/01/31 06:02:01;;;;;;;16.40;3.37;;;-3.40;99.90;;;;;;5057608;28;20789;-76
2022/01/31 06:04:27;;;;;;;9.20;2.23;;;-3.10;99.90;;;;;;5057505;28;20714;-77
2022/01/31 06:06:53;;;;;;;6.83;2.17;;;-5.30;99.90;;;;;;5057626;28;20445;-76
2022/01/31 06:09:19;;;;;;;14.90;2.47;;;-3.80;99.90;;;;;;5057097;28;20542;-73
2022/01/31 06:11:48;;;;;;;12.70;2.67;;;-5.00;99.90;;;;;;5057184;28;20296;-76
2022/01/31 06:14:14;;;;;;;5.60;2.17;;;-4.30;99.90;;;;;;5057415;28;20218;-76
2022/01/31 06:16:40;;;;;;;22.20;3.90;;;-4.40;99.90;;;;;;5057542;28;20495;-76
2022/01/31 06:19:06;;;;;;;12.17;4.20;;;-5.00;99.90;;;;;;5057424;28;20852;-77
2022/01/31 06:21:32;;;;;;;11.03;2.70;;;-4.90;99.90;;;;;;5057203;28;20318;-76
2022/01/31 06:23:57;;;;;;;8.13;2.93;;;-4.90;99.90;;;;;;5056976;28;20577;-76
2022/01/31 06:26:23;;;;;;;5.10;3.53;;;-5.10;99.90;;;;;;5057258;28;20577;-77
2022/01/31 06:28:49;;;;;;;12.43;2.27;;;-4.70;99.90;;;;;;5055967;28;20203;-76
2022/01/31 06:31:15;;;;;;;11.40;2.67;;;-4.30;99.90;;;;;;5057140;28;20173;-78
2022/01/31 06:33:42;;;;;;;6.10;2.40;;;-5.00;99.90;;;;;;5057031;28;20165;-76
2022/01/31 06:36:08;;;;;;;8.73;3.20;;;-5.10;99.90;;;;;;5057142;28;20407;-74
2022/01/31 06:38:35;;;;;;;12.53;2.70;;;-5.00;99.90;;;;;;5056727;28;20397;-74
2022/01/31 06:41:02;;;;;;;11.70;5.73;;;-5.20;99.90;;;;;;5056896;28;20691;-77
2022/01/31 06:43:28;;;;;;;11.20;2.43;;;-4.10;99.90;;;;;;5057011;28;20881;-77
2022/01/31 06:45:54;;;;;;;8.20;2.27;;;-5.40;99.90;;;;;;5056829;28;20411;-76
2022/01/31 06:48:20;;;;;;;9.07;2.63;;;-3.80;99.90;;;;;;5056891;28;20197;-76
2022/01/31 06:50:46;;;;;;;9.47;2.20;;;-5.30;99.90;;;;;;5056952;28;20173;-76
2022/01/31 06:53:12;;;;;;;17.17;2.57;;;-5.30;99.90;;;;;;5056590;28;20192;-76
2022/01/31 06:55:39;;;;;;;9.30;2.13;;;-4.80;99.90;;;;;;5056851;28;20193;-79
2022/01/31 06:58:05;;;;;;;10.47;3.13;;;-4.10;99.90;;;;;;5054876;28;20518;-72
2022/01/31 07:00:31;;;;;;;10.73;2.20;;;-5.50;99.90;;;;;;5056372;28;20417;-74
2022/01/31 07:03:00;;;;;;;9.30;3.07;;;-5.00;99.90;;;;;;5056596;28;20210;-78
2022/01/31 07:05:26;;;;;;;9.87;2.70;;;-5.00;99.90;;;;;;5055426;28;20705;-74
2022/01/31 07:07:52;;;;;;;18.03;2.57;;;-4.90;99.90;;;;;;5056137;28;20442;-75
2022/01/31 07:10:18;;;;;;;10.23;2.93;;;-5.30;99.90;;;;;;5056154;28;20433;-81
2022/01/31 07:12:51;;;;;;;8.17;2.17;;;-5.30;99.90;;;;;;5058720;28;20175;-75
2022/01/31 07:15:18;;;;;;;14.37;2.80;;;-4.10;99.90;;;;;;5058445;28;20497;-75
2022/01/31 07:17:47;;;;;;;8.83;2.43;;;-4.80;99.90;;;;;;5056434;28;20404;-75
2022/01/31 07:20:34;;;;;;;10.13;3.13;;;-4.90;99.90;;;;;;5056138;28;20411;-75
2022/01/31 07:23:03;;;;;;;8.77;2.50;;;-5.00;99.90;;;;;;5055925;28;20423;-73
2022/01/31 07:25:35;;;;;;;10.03;2.57;;;-5.50;99.90;;;;;;5054896;28;20606;-78
2022/01/31 07:28:08;;;;;;;17.13;3.73;;;-5.40;99.90;;;;;;5056021;28;20497;-73
2022/01/31 07:30:36;;;;;;;10.57;3.20;;;-5.30;99.90;;;;;;5061668;28;20737;-72
2022/01/31 07:33:02;;;;;;;11.80;4.13;;;-5.50;99.90;;;;;;5073347;28;20433;-78
2022/01/31 07:35:28;;;;;;;8.30;2.97;;;-5.50;99.90;;;;;;5068072;28;20405;-75
2022/01/31 07:37:54;;;;;;;12.37;2.80;;;-4.30;99.90;;;;;;5070151;28;20428;-75
2022/01/31 07:40:20;;;;;;;10.30;2.77;;;-5.10;99.90;;;;;;5070857;28;20180;-76
2022/01/31 07:42:46;;;;;;;5.83;2.20;;;-5.00;99.90;;;;;;5065282;28;20186;-74
2022/01/31 07:45:12;;;;;;;9.07;2.03;;;-4.70;99.90;;;;;;5073611;28;20606;-76
2022/01/31 07:47:38;;;;;;;15.43;2.97;;;-4.90;99.90;;;;;;5075234;28;20295;-73
2022/01/31 07:50:05;;;;;;;16.03;5.33;;;-5.40;99.90;;;;;;5073989;28;20409;-73
2022/01/31 07:52:32;;;;;;;13.97;3.07;;;-5.30;99.90;;;;;;5074307;28;20402;-72
2022/01/31 07:54:57;;;;;;;8.57;2.80;;;-5.10;99.90;;;;;;5075463;28;20402;-74
2022/01/31 07:57:25;;;;;;;13.97;2.50;;;-4.70;99.90;;;;;;5075852;28;20453;-72
2022/01/31 07:59:54;;;;;;;15.30;2.33;;;-3.70;99.90;;;;;;5075872;28;20182;-73
2022/01/31 08:02:20;;;;;;;15.10;3.43;;;-5.00;99.90;;;;;;5061711;28;20500;-74
2022/01/31 08:04:46;;;;;;;10.47;2.37;;;-4.90;99.90;;;;;;5073023;28;20403;-75
2022/01/31 08:07:12;;;;;;;18.77;3.90;;;-5.30;99.90;;;;;;5070428;28;20451;-75
2022/01/31 08:09:39;;;;;;;12.47;4.20;;;-5.90;99.90;;;;;;5077026;28;20178;-75
2022/01/31 08:12:05;;;;;;;18.73;3.37;;;-6.00;99.90;;;;;;5080365;28;20422;-76
2022/01/31 08:14:31;;;;;;;13.47;2.60;;;-6.00;99.90;;;;;;5081248;28;20555;-73
2022/01/31 08:16:57;;;;;;;7.00;2.30;;;-6.00;99.90;;;;;;5080507;28;20483;-75
2022/01/31 08:19:23;;;;;;;9.43;3.67;;;-6.00;99.90;;;;;;5080725;28;20878;-74
2022/01/31 08:21:49;;;;;;;11.67;2.63;;;-5.50;99.90;;;;;;5080202;28;20213;-76
2022/01/31 08:24:15;;;;;;;7.07;2.20;;;-5.60;99.90;;;;;;5080621;28;20411;-77
2022/01/31 08:26:41;;;;;;;13.07;2.33;;;-3.90;99.90;;;;;;5081428;28;20188;-79
2022/01/31 08:29:56;;;;;;;6.07;2.50;;;-5.50;99.90;;;;;;5081482;28;20185;-73
2022/01/31 08:31:53;;;;;;;11.43;2.50;;;-5.50;99.90;;;;;;5057615;28;20190;-79
2022/01/31 08:35:47;;;;;;;3.83;1.60;;;-5.80;99.90;;;;;;5080833;28;20399;-79
2022/01/31 08:37:09;;;;;;;10.17;2.13;;;-5.40;99.90;;;;;;5081560;28;20404;-80
2022/01/31 08:39:35;;;;;;;8.87;2.87;;;-5.30;99.90;;;;;;5081448;28;20405;-75
2022/01/31 08:42:04;;;;;;;12.27;3.83;;;-4.90;99.90;;;;;;5080916;28;20414;-79
2022/01/31 08:44:30;;;;;;;16.73;3.00;;;-4.90;99.90;;;;;;5081384;28;20181;-75
2022/01/31 08:46:56;;;;;;;9.77;3.37;;;-4.00;99.90;;;;;;5081458;28;20406;-74
2022/01/31 08:49:22;;;;;;;15.37;3.40;;;-5.20;99.90;;;;;;5081016;28;20475;-75
2022/01/31 08:51:47;;;;;;;12.13;2.60;;;-4.90;99.90;;;;;;5080752;28;20168;-74
2022/01/31 08:54:14;;;;;;;13.70;3.07;;;-4.30;99.90;;;;;;5077884;28;20208;-78
2022/01/31 08:56:44;;;;;;;12.77;2.93;;;-5.20;99.90;;;;;;5080035;28;20170;-76
2022/01/31 08:59:18;;;;;;;12.70;2.77;;;-3.60;99.90;;;;;;5080821;28;20683;-74
2022/01/31 09:02:03;;;;;;;11.30;4.20;;;-5.50;99.90;;;;;;5079004;28;20426;-72
2022/01/31 09:04:34;;;;;;;11.03;2.83;;;-3.00;99.90;;;;;;5060659;28;20461;-75
2022/01/31 09:07:02;;;;;;;10.47;2.80;;;-5.40;99.90;;;;;;5060189;28;20493;-72
2022/01/31 09:09:30;;;;;;;13.53;3.20;;;-5.40;99.90;;;;;;5060321;28;20846;-76
2022/01/31 09:11:57;;;;;;;13.30;2.57;;;-5.30;99.90;;;;;;5060643;28;20751;-76
2022/01/31 09:14:23;;;;;;;22.53;7.30;;;-4.30;99.90;;;;;;5064867;28;20616;-75
2022/01/31 09:16:49;;;;;;;12.23;3.17;;;-5.30;99.90;;;;;;5079080;28;20493;-78
2022/01/31 09:19:15;;;;;;;10.40;2.40;;;-5.50;99.90;;;;;;5079992;28;20496;-77
2022/01/31 09:21:40;;;;;;;9.20;3.97;;;-5.60;99.90;;;;;;5077917;28;20267;-77
2022/01/31 09:24:06;;;;;;;8.70;2.90;;;-5.40;99.90;;;;;;5077465;28;20205;-77
2022/01/31 09:26:32;;;;;;;18.50;3.73;;;-5.30;99.90;;;;;;5077014;28;20204;-77
2022/01/31 09:28:58;;;;;;;14.97;2.70;;;-4.60;99.90;;;;;;5076230;28;20213;-72
2022/01/31 09:31:24;;;;;;;21.67;4.20;;;-5.50;99.90;;;;;;5075485;28;20181;-74
2022/01/31 09:33:50;;;;;;;14.03;2.93;;;-5.00;99.90;;;;;;5075571;28;20418;-73
2022/01/31 09:36:17;;;;;;;15.43;2.87;;;-5.10;99.90;;;;;;5077720;28;20429;-76
2022/01/31 09:38:43;;;;;;;19.30;2.83;;;-5.20;99.90;;;;;;5074153;28;20438;-75
2022/01/31 09:41:14;;;;;;;11.23;2.67;;;-4.70;99.90;;;;;;5075934;28;20760;-76
2022/01/31 09:48:45;;;;;;;9.20;2.13;;;-5.30;99.90;;;;;;5077187;28;20449;-76
2022/01/31 09:51:20;;;;;;;7.77;2.37;;;-4.90;99.90;;;;;;5077466;28;20443;-76
2022/01/31 09:53:47;;;;;;;11.83;2.63;;;-4.60;99.90;;;;;;5076317;28;20415;-73
2022/01/31 09:56:21;;;;;;;13.37;2.50;;;-4.50;99.90;;;;;;5076090;28;20850;-75
2022/01/31 09:58:48;;;;;;;8.73;3.87;;;-5.40;99.90;;;;;;5076086;28;20411;-77
2022/01/31 10:01:18;;;;;;;15.30;3.20;;;-4.90;99.90;;;;;;5074599;28;20434;-77
2022/01/31 10:03:49;;;;;;;10.73;2.93;;;-3.30;99.90;;;;;;5076777;28;20881;-80
2022/01/31 10:06:23;;;;;;;15.43;2.90;;;-4.80;99.90;;;;;;5077087;28;20414;-82
2022/01/31 10:09:06;;;;;;;11.97;3.10;;;-5.20;99.90;;;;;;5075816;28;20453;-77
2022/01/31 10:11:39;;;;;;;10.23;2.53;;;-5.20;99.90;;;;;;5076557;28;20414;-75
2022/01/31 10:17:31;;;;;;;15.17;3.70;;;-5.20;99.90;;;;;;5076702;28;20509;-72
2022/01/31 10:20:07;;;;;;;14.03;2.83;;;-4.90;99.90;;;;;;5096276;28;20418;-76
2022/01/31 10:22:35;;;;;;;12.37;3.43;;;-5.40;99.90;;;;;;5076356;28;20465;-78
2022/01/31 10:25:06;;;;;;;13.10;3.10;;;-5.70;99.90;;;;;;5076289;28;20416;-80
2022/01/31 10:27:34;;;;;;;8.60;2.63;;;-5.80;99.90;;;;;;5076596;28;20579;-79
2022/01/31 10:30:07;;;;;;;15.33;4.33;;;-5.90;99.90;;;;;;5075831;28;20464;-79
2022/01/31 10:32:36;;;;;;;20.00;5.77;;;-5.50;99.90;;;;;;5075263;28;20420;-79
2022/01/31 10:35:09;;;;;;;10.17;3.93;;;-5.10;99.90;;;;;;5075872;28;20415;-80
2022/01/31 10:37:37;;;;;;;13.53;4.10;;;-4.60;99.90;;;;;;5076354;28;20776;-75
2022/01/31 10:52:02;;;;;;;18.00;3.60;;;-4.20;99.90;;;;;;5064391;28;20406;-75
2022/01/31 10:54:25;;;;;;;12.37;3.20;;;-5.10;99.90;;;;;;5069536;28;20439;-77
2022/01/31 10:57:00;;;;;;;11.73;3.63;;;-5.40;99.90;;;;;;5076334;28;20414;-75
2022/01/31 10:59:45;;;;;;;6.60;2.50;;;-5.40;99.90;;;;;;5074705;28;20803;-75
2022/01/31 11:02:19;;;;;;;11.50;3.07;;;-5.00;99.90;;;;;;5067971;28;20493;-77
2022/01/31 11:04:46;;;;;;;8.97;3.10;;;-5.20;99.90;;;;;;5070948;28;20420;-73
2022/01/31 11:07:17;;;;;;;17.30;3.13;;;-5.30;99.90;;;;;;5072582;28;20963;-74
2022/01/31 11:09:45;;;;;;;15.77;3.57;;;-5.30;99.90;;;;;;5055830;28;20440;-72
2022/01/31 11:12:12;;;;;;;9.43;4.03;;;-5.50;99.90;;;;;;5063183;28;20449;-76
2022/01/31 11:14:48;;;;;;;10.77;2.07;;;-5.40;99.90;;;;;;5075376;28;20779;-74
2022/01/31 11:17:18;;;;;;;15.73;4.67;;;-5.40;99.90;;;;;;5075677;28;20418;-74
2022/01/31 11:19:56;;;;;;;12.90;4.27;;;-4.90;99.90;;;;;;5074520;28;20452;-70
2022/01/31 11:22:35;;;;;;;9.97;4.87;;;-5.20;99.90;;;;;;5074934;28;20788;-73
2022/01/31 11:25:08;;;;;;;11.70;2.77;;;-5.50;99.90;;;;;;5075798;28;20417;-73
2022/01/31 11:27:39;;;;;;;20.07;4.80;;;-5.40;99.90;;;;;;5073366;28;20819;-72
2022/01/31 11:30:07;;;;;;;20.13;3.50;;;-5.10;99.90;;;;;;5072521;28;20871;-70
2022/01/31 11:32:33;;;;;;;7.67;3.63;;;-5.20;99.90;;;;;;5073003;28;20408;-72
2022/01/31 11:34:59;;;;;;;9.03;3.53;;;-5.50;99.90;;;;;;5070873;28;20461;-74
2022/01/31 11:37:25;;;;;;;16.33;3.40;;;-5.50;99.90;;;;;;5067717;28;20933;-73
2022/01/31 11:39:58;;;;;;;11.37;3.00;;;-5.20;99.90;;;;;;5067665;28;20585;-74
2022/01/31 11:42:25;;;;;;;12.30;2.97;;;-5.20;99.90;;;;;;5073913;28;20443;-72
2022/01/31 11:45:02;;;;;;;26.53;3.97;;;-5.40;99.90;;;;;;5074351;28;20916;-72
2022/01/31 11:47:31;;;;;;;15.57;4.30;;;-5.30;99.90;;;;;;5061815;28;20553;-70
2022/01/31 11:50:00;;;;;;;19.27;3.47;;;-5.40;99.90;;;;;;5072271;28;20425;-72
2022/01/31 11:52:32;;;;;;;17.27;3.27;;;-5.30;99.90;;;;;;5074665;28;20446;-71
2022/01/31 11:55:08;;;;;;;14.97;3.83;;;-5.40;99.90;;;;;;5069077;28;20495;-69
2022/01/31 11:57:34;;;;;;;19.97;4.70;;;-5.30;99.90;;;;;;5062891;28;20455;-72
2022/01/31 12:00:08;;;;;;;10.03;3.97;;;-4.20;99.90;;;;;;5071898;28;20479;-72
2022/01/31 12:02:43;;;;;;;14.77;3.97;;;-5.30;99.90;;;;;;5067573;28;20431;-81
2022/01/31 12:05:16;;;;;;;9.07;2.87;;;-5.70;99.90;;;;;;5060093;28;20426;-78
2022/01/31 12:07:46;;;;;;;12.17;3.80;;;-6.70;99.90;;;;;;5059782;28;20456;-77
2022/01/31 12:10:27;;;;;;;19.63;4.40;;;-6.00;99.90;;;;;;5068689;28;20470;-77
2022/01/31 12:13:00;;;;;;;12.10;2.93;;;-6.10;99.90;;;;;;5065006;28;20430;-76
2022/01/31 12:24:20;;;;;;;19.10;4.03;;;-5.20;99.90;;;;;;5065949;28;20432;-71
2022/01/31 12:26:52;;;;;;;11.60;5.17;;;-5.50;99.90;;;;;;5072793;28;20874;-71
2022/01/31 12:29:24;;;;;;;21.43;4.53;;;-5.70;99.90;;;;;;5069384;28;20423;-72
2022/01/31 12:32:13;;;;;;;19.20;4.57;;;-5.60;99.90;;;;;;5063027;28;20420;-70
2022/01/31 12:35:01;;;;;;;12.43;3.53;;;-6.00;99.90;;;;;;5060548;28;20511;-71
2022/01/31 12:37:35;;;;;;;17.50;4.20;;;-6.10;99.90;;;;;;5058936;28;20489;-74
2022/01/31 12:40:27;;;;;;;12.93;3.50;;;-4.60;99.90;;;;;;5065657;28;20438;-73
2022/01/31 12:43:09;;;;;;;18.67;4.07;;;-6.00;99.90;;;;;;5074332;28;20419;-76
2022/01/31 12:45:38;;;;;;;17.00;5.10;;;-5.80;99.90;;;;;;5068941;28;20416;-75
2022/01/31 12:50:40;;;;;;;13.43;4.57;;;-5.80;99.90;;;;;;5068307;28;20736;-77
2022/01/31 12:56:08;;;;;;;16.37;4.80;;;-5.50;99.90;;;;;;5070051;28;20419;-77
2022/01/31 12:58:37;;;;;;;32.90;7.30;;;-5.70;99.90;;;;;;5068108;28;20456;-76
2022/01/31 13:01:18;;;;;;;15.50;4.20;;;-5.80;99.90;;;;;;5072559;28;20423;-72
2022/01/31 13:03:54;;;;;;;22.40;4.20;;;-5.50;99.90;;;;;;5073929;28;20442;-75
2022/01/31 13:06:34;;;;;;;18.77;4.27;;;-5.40;99.90;;;;;;5068708;28;20788;-73
2022/01/31 13:09:05;;;;;;;11.67;4.07;;;-5.60;99.90;;;;;;5066858;28;20761;-70
2022/01/31 13:11:32;;;;;;;21.93;4.37;;;-5.50;99.90;;;;;;5075302;28;20416;-72
2022/01/31 13:14:05;;;;;;;22.73;5.97;;;-5.80;99.90;;;;;;5074027;28;20421;-73
2022/01/31 13:16:39;;;;;;;12.07;4.63;;;-5.70;99.90;;;;;;5071203;28;20412;-72
2022/01/31 13:19:13;;;;;;;15.37;3.70;;;-5.80;99.90;;;;;;5072987;28;20475;-73
2022/01/31 13:21:39;;;;;;;18.53;5.40;;;-5.20;99.90;;;;;;5059515;28;20417;-71
2022/01/31 13:24:05;;;;;;;15.87;4.10;;;-5.50;99.90;;;;;;5076330;28;20428;-70